createdAt,value
2022-10-03T00:01:22.748Z,100479.55
2022-10-03T00:04:05.806Z,100482.38
2022-10-03T00:06:45.931Z,100470.09
2022-10-03T00:09:34.931Z,100465.58
2022-10-03T00:12:20.114Z,100459.82
2022-10-03T00:15:01.101Z,100456.21
2022-10-03T00:17:37.876Z,100446.77
2022-10-03T00:20:31.746Z,100435.81
2022-10-03T00:23:08.923Z,100427.49
2022-10-03T00:25:47.976Z,100427.67
2022-10-03T00:28:28.521Z,100422.10
2022-10-03T00:31:11.512Z,100410.50
2022-10-03T00:34:00.931Z,100411.80
2022-10-03T00:36:42.510Z,100413.88
2022-10-03T00:39:31.633Z,100414.91
2022-10-03T00:42:35.138Z,100416.02
2022-10-03T00:45:55.104Z,100420.27
2022-10-03T00:49:02.106Z,100426.51
2022-10-03T00:51:49.224Z,100427.05
2022-10-03T00:54:33.457Z,100424.59
2022-10-03T00:57:20.006Z,100411.67
2022-10-03T01:00:07.405Z,100406.86
2022-10-03T01:03:01.300Z,100400.66
2022-10-03T01:05:47.524Z,100399.12
2022-10-03T01:08:41.297Z,100397.60
2022-10-03T01:11:21.915Z,100397.86
2022-10-03T01:14:04.238Z,100405.26
2022-10-03T01:16:43.971Z,100407.73
2022-10-03T01:19:35.814Z,100414.78
2022-10-03T01:22:28.501Z,100425.31
2022-10-03T01:25:11.055Z,100424.85
2022-10-03T01:28:06.783Z,100427.38
2022-10-03T01:30:42.352Z,100419.63
2022-10-03T01:33:16.141Z,100418.13
2022-10-03T01:35:53.284Z,100420.14
2022-10-03T01:38:29.941Z,100426.67
2022-10-03T01:41:04.056Z,100437.10
2022-10-03T01:43:41.943Z,100431.40
2022-10-03T01:46:19.264Z,100429.28
2022-10-03T01:48:59.423Z,100435.06
2022-10-03T01:51:34.871Z,100430.20
2022-10-03T01:54:14.497Z,100434.14
2022-10-03T01:56:52.862Z,100440.63
2022-10-03T01:59:31.627Z,100444.39
2022-10-03T02:02:02.053Z,100450.30
2022-10-03T02:04:43.807Z,100448.13
2022-10-03T02:07:24.216Z,100441.45
2022-10-03T02:10:06.604Z,100440.61
2022-10-03T02:12:40.292Z,100447.58
2022-10-03T02:15:18.842Z,100452.12
2022-10-03T02:17:56.203Z,100442.56
2022-10-03T02:20:42.698Z,100445.39
2022-10-03T02:23:27.568Z,100442.32
2022-10-03T02:26:14.730Z,100440.17
2022-10-03T02:29:06.767Z,100441.55
2022-10-03T02:32:09.383Z,100435.55
2022-10-03T02:35:12.202Z,100430.00
2022-10-03T02:38:08.964Z,100432.86
2022-10-03T02:41:02.261Z,100438.63
2022-10-03T02:44:02.074Z,100441.62
2022-10-03T02:47:17.329Z,100436.70
2022-10-03T02:50:18.726Z,100437.90
2022-10-03T02:53:22.838Z,100437.69
2022-10-03T02:56:31.310Z,100440.58
2022-10-03T02:59:27.443Z,100438.10
2022-10-03T03:02:29.930Z,100426.95
2022-10-03T03:05:52.926Z,100439.15
2022-10-03T03:08:47.038Z,100429.48
2022-10-03T03:11:39.195Z,100434.01
2022-10-03T03:14:46.787Z,100440.80
2022-10-03T03:17:30.640Z,100447.98
2022-10-03T03:20:20.450Z,100453.25
2022-10-03T03:23:15.701Z,100450.12
2022-10-03T03:26:12.809Z,100445.19
2022-10-03T03:28:55.838Z,100449.86
2022-10-03T03:31:34.992Z,100438.09
2022-10-03T03:34:16.074Z,100440.70
2022-10-03T03:36:54.155Z,100436.93
2022-10-03T03:39:45.514Z,100427.05
2022-10-03T03:42:34.867Z,100422.55
2022-10-03T03:45:22.206Z,100412.21
2022-10-03T03:48:07.988Z,100407.88
2022-10-03T03:50:56.693Z,100420.33
2022-10-03T03:53:39.690Z,100426.80
2022-10-03T03:56:29.611Z,100425.03
2022-10-03T03:59:12.256Z,100415.98
2022-10-03T04:02:04.761Z,100416.11
2022-10-03T04:04:51.959Z,100417.74
2022-10-03T04:07:39.307Z,100418.16
2022-10-03T04:10:31.160Z,100416.77
2022-10-03T04:13:22.370Z,100429.24
2022-10-03T04:16:40.026Z,100431.98
2022-10-03T04:19:19.391Z,100435.71
2022-10-03T04:22:08.807Z,100433.62
2022-10-03T04:25:01.297Z,100429.54
2022-10-03T04:27:53.932Z,100429.64
2022-10-03T04:30:31.894Z,100423.42
2022-10-03T04:33:12.367Z,100421.89
2022-10-03T04:36:09.202Z,100421.46
2022-10-03T04:38:49.548Z,100423.55
2022-10-03T04:41:27.557Z,100425.12
2022-10-03T04:44:05.522Z,100420.83
2022-10-03T04:46:43.434Z,100420.77
2022-10-03T04:49:20.114Z,100421.21
2022-10-03T04:51:57.617Z,100420.27
2022-10-03T04:54:40.119Z,100413.86
2022-10-03T04:57:21.405Z,100416.14
2022-10-03T04:59:58.092Z,100412.80
2022-10-03T05:02:37.354Z,100408.67
2022-10-03T05:05:23.513Z,100409.29
2022-10-03T05:08:04.407Z,100408.84
2022-10-03T05:10:51.590Z,100407.17
2022-10-03T05:13:32.366Z,100407.98
2022-10-03T05:16:09.610Z,100408.15
2022-10-03T05:18:46.721Z,100405.66
2022-10-03T05:21:27.366Z,100414.58
2022-10-03T05:24:02.892Z,100415.73
2022-10-03T05:26:46.122Z,100414.80
2022-10-03T05:29:31.332Z,100404.86
2022-10-03T05:32:12.844Z,100401.31
2022-10-03T05:35:01.187Z,100399.35
2022-10-03T05:37:59.382Z,100395.56
2022-10-03T05:40:33.504Z,100396.14
2022-10-03T05:43:18.836Z,100398.29
2022-10-03T05:45:54.261Z,100399.55
2022-10-03T05:48:41.098Z,100407.75
2022-10-03T05:51:37.005Z,100407.20
2022-10-03T05:54:43.219Z,100408.88
2022-10-03T05:57:46.384Z,100405.32
2022-10-03T06:00:24.504Z,100410.42
2022-10-03T06:03:30.759Z,100416.58
2022-10-03T06:06:20.403Z,100416.90
2022-10-03T06:09:09.553Z,100415.70
2022-10-03T06:12:09.454Z,100414.66
2022-10-03T06:15:05.116Z,100415.59
2022-10-03T06:18:00.257Z,100416.09
2022-10-03T06:21:02.878Z,100415.69
2022-10-03T06:23:57.651Z,100414.92
2022-10-03T06:26:58.065Z,100419.77
2022-10-03T06:29:52.466Z,100420.25
2022-10-03T06:33:04.508Z,100424.89
2022-10-03T06:36:05.213Z,100423.93
2022-10-03T06:39:09.101Z,100427.34
2022-10-03T06:42:19.197Z,100435.24
2022-10-03T06:45:20.069Z,100439.52
2022-10-03T06:48:13.853Z,100444.79
2022-10-03T06:51:04.469Z,100447.34
2022-10-03T06:53:43.757Z,100445.28
2022-10-03T06:56:37.982Z,100442.45
2022-10-03T06:59:53.753Z,100443.18
2022-10-03T07:02:56.578Z,100440.38
2022-10-03T07:05:58.659Z,100443.80
2022-10-03T07:08:57.242Z,100439.11
2022-10-03T07:11:44.035Z,100434.61
2022-10-03T07:14:52.725Z,100435.56
2022-10-03T07:17:38.571Z,100427.04
2022-10-03T07:20:47.566Z,100421.70
2022-10-03T07:23:49.013Z,100422.70
2022-10-03T07:26:45.096Z,100430.98
2022-10-03T07:29:22.906Z,100430.73
2022-10-03T07:32:10.948Z,100433.41
2022-10-03T07:35:24.528Z,100435.73
2022-10-03T07:38:51.787Z,100435.06
2022-10-03T07:41:43.766Z,100436.06
2022-10-03T07:44:42.264Z,100426.31
2022-10-03T07:47:45.253Z,100424.81
2022-10-03T07:51:06.112Z,100422.40
2022-10-03T07:54:17.283Z,100421.80
2022-10-03T07:57:21.488Z,100423.05
2022-10-03T08:00:17.704Z,100414.76
2022-10-03T08:03:29.267Z,100411.33
2022-10-03T08:06:23.090Z,100413.36
2022-10-03T08:09:28.744Z,100406.48
2022-10-03T08:12:21.339Z,100405.48
2022-10-03T08:15:04.501Z,100403.16
2022-10-03T08:18:14.473Z,100402.35
2022-10-03T08:20:52.798Z,100399.86
2022-10-03T08:23:45.066Z,100396.52
2022-10-03T08:26:21.857Z,100395.58
2022-10-03T08:29:09.546Z,100395.18
2022-10-03T08:31:59.089Z,100391.79
2022-10-03T08:34:58.385Z,100387.71
2022-10-03T08:38:06.423Z,100382.80
2022-10-03T08:41:14.628Z,100377.34
2022-10-03T08:44:30.457Z,100371.31
2022-10-03T08:47:37.580Z,100363.53
2022-10-03T08:50:49.634Z,100363.36
2022-10-03T08:53:53.416Z,100363.10
2022-10-03T08:56:32.371Z,100367.55
2022-10-03T08:59:30.608Z,100363.56
2022-10-03T09:02:25.024Z,100363.07
2022-10-03T09:05:33.734Z,100356.51
2022-10-03T09:08:44.295Z,100358.13
2022-10-03T09:11:47.110Z,100358.27
2022-10-03T09:14:36.995Z,100348.29
2022-10-03T09:17:22.185Z,100353.98
2022-10-03T09:20:19.858Z,100353.89
2022-10-03T09:23:32.704Z,100349.67
2022-10-03T09:26:29.500Z,100339.78
2022-10-03T09:29:17.710Z,100344.23
2022-10-03T09:32:36.497Z,100349.70
2022-10-03T09:35:35.000Z,100339.63
2022-10-03T09:38:22.897Z,100337.62
2022-10-03T09:41:27.830Z,100338.63
2022-10-03T09:44:36.395Z,100328.00
2022-10-03T09:47:38.127Z,100330.52
2022-10-03T09:50:41.315Z,100329.45
2022-10-03T09:53:32.452Z,100327.06
2022-10-03T09:56:41.074Z,100328.69
2022-10-03T09:59:33.649Z,100330.33
2022-10-03T10:02:24.820Z,100327.42
2022-10-03T10:05:08.874Z,100326.91
2022-10-03T10:08:04.134Z,100330.25
2022-10-03T10:10:57.343Z,100327.33
2022-10-03T10:14:17.807Z,100321.60
2022-10-03T10:17:37.371Z,100314.03
2022-10-03T10:20:24.728Z,100307.68
2022-10-03T10:23:31.294Z,100312.08
2022-10-03T10:26:36.582Z,100317.55
2022-10-03T10:29:51.457Z,100303.28
2022-10-03T10:33:08.949Z,100311.61
2022-10-03T10:36:23.718Z,100302.36
2022-10-03T10:39:27.461Z,100298.98
2022-10-03T10:42:46.056Z,100302.33
2022-10-03T10:45:45.443Z,100298.36
2022-10-03T10:48:49.634Z,100302.55
2022-10-03T10:51:47.135Z,100292.59
2022-10-03T10:54:55.542Z,100285.78
2022-10-03T10:57:31.125Z,100287.98
2022-10-03T11:00:21.610Z,100283.91
2022-10-03T11:03:30.772Z,100285.23
2022-10-03T11:06:35.508Z,100267.22
2022-10-03T11:09:59.657Z,100267.40
2022-10-03T11:13:00.413Z,100269.80
2022-10-03T11:16:10.242Z,100266.21
2022-10-03T11:19:24.668Z,100273.98
2022-10-03T11:22:25.655Z,100274.01
2022-10-03T11:25:31.816Z,100282.77
2022-10-03T11:28:28.672Z,100267.34
2022-10-03T11:31:28.338Z,100262.98
2022-10-03T11:34:35.988Z,100246.30
2022-10-03T11:37:09.771Z,100237.39
2022-10-03T11:39:47.307Z,100235.00
2022-10-03T11:42:29.220Z,100232.36
2022-10-03T11:45:00.536Z,100236.25
2022-10-03T11:47:44.921Z,100232.92
2022-10-03T11:50:32.761Z,100241.05
2022-10-03T11:53:14.464Z,100227.67
2022-10-03T11:55:47.766Z,100214.08
2022-10-03T11:58:31.965Z,100213.05
2022-10-03T12:01:17.876Z,100211.33
2022-10-03T12:03:53.743Z,100204.24
2022-10-03T12:06:58.276Z,100194.45
2022-10-03T12:09:37.881Z,100191.17
2022-10-03T12:12:15.943Z,100196.41
2022-10-03T12:14:49.320Z,100197.09
2022-10-03T12:17:29.182Z,100187.61
2022-10-03T12:20:05.603Z,100190.94
2022-10-03T12:22:45.811Z,100226.26
2022-10-03T12:25:23.592Z,100221.94
2022-10-03T12:28:01.966Z,100236.95
2022-10-03T12:30:40.699Z,100232.27
2022-10-03T12:33:32.365Z,100226.83
2022-10-03T12:36:09.441Z,100226.08
2022-10-03T12:38:52.410Z,100237.49
2022-10-03T12:41:35.888Z,100243.64
2022-10-03T12:44:20.969Z,100257.23
2022-10-03T12:47:03.021Z,100274.73
2022-10-03T12:49:57.322Z,100287.35
2022-10-03T12:52:31.728Z,100279.27
2022-10-03T12:55:19.488Z,100285.91
2022-10-03T12:57:59.621Z,100285.05
2022-10-03T13:00:33.750Z,100270.27
2022-10-03T13:03:21.111Z,100266.48
2022-10-03T13:06:16.098Z,100261.89
2022-10-03T13:09:08.898Z,100261.52
2022-10-03T13:11:50.117Z,100259.37
2022-10-03T13:14:32.514Z,100260.68
2022-10-03T13:17:12.576Z,100262.08
2022-10-03T13:19:51.339Z,100263.20
2022-10-03T13:22:36.993Z,100261.19
2022-10-03T13:25:22.145Z,100251.77
2022-10-03T13:28:01.146Z,100257.81
2022-10-03T13:30:32.565Z,100259.75
2022-10-03T13:33:11.572Z,100264.16
2022-10-03T13:35:59.627Z,100265.34
2022-10-03T13:39:09.667Z,100267.94
2022-10-03T13:41:59.088Z,100274.10
2022-10-03T13:44:37.450Z,100275.36
2022-10-03T13:47:25.342Z,100276.20
2022-10-03T13:49:58.381Z,100270.73
2022-10-03T13:52:40.015Z,100266.64
2022-10-03T13:55:21.717Z,100263.45
2022-10-03T13:58:07.422Z,100262.38
2022-10-03T14:00:51.861Z,100257.75
2022-10-03T14:03:30.471Z,100255.89
2022-10-03T14:06:12.354Z,100255.62
2022-10-03T14:08:58.302Z,100257.80
2022-10-03T14:11:39.209Z,100254.48
2022-10-03T14:14:57.461Z,100253.67
2022-10-03T14:17:36.768Z,100251.64
2022-10-03T14:20:16.741Z,100256.36
2022-10-03T14:22:58.161Z,100258.42
2022-10-03T14:25:32.176Z,100256.32
2022-10-03T14:28:10.070Z,100259.13
2022-10-03T14:31:05.422Z,100253.73
2022-10-03T14:33:43.852Z,100250.91
2022-10-03T14:36:30.130Z,100251.88
2022-10-03T14:39:25.400Z,100250.77
2022-10-03T14:42:25.165Z,100256.09
2022-10-03T14:44:57.897Z,100256.50
2022-10-03T14:47:34.246Z,100251.67
2022-10-03T14:50:04.877Z,100249.95
2022-10-03T14:52:41.833Z,100252.70
2022-10-03T14:55:18.071Z,100257.05
2022-10-03T14:58:09.807Z,100258.20
2022-10-03T15:00:43.155Z,100252.09
2022-10-03T15:03:33.017Z,100251.16
2022-10-03T15:06:20.617Z,100250.20
2022-10-03T15:08:52.759Z,100258.27
2022-10-03T15:11:27.213Z,100259.17
2022-10-03T15:14:02.181Z,100260.75
2022-10-03T15:16:36.811Z,100260.86
2022-10-03T15:19:09.785Z,100265.48
2022-10-03T15:21:45.028Z,100273.79
2022-10-03T15:24:25.066Z,100278.34
2022-10-03T15:27:04.493Z,100286.67
2022-10-03T15:29:34.625Z,100292.09
2022-10-03T15:32:07.922Z,100294.70
2022-10-03T15:34:41.659Z,100297.55
2022-10-03T15:37:18.354Z,100300.25
2022-10-03T15:39:52.099Z,100303.02
2022-10-03T15:42:30.142Z,100303.87
2022-10-03T15:45:00.371Z,100311.12
2022-10-03T15:47:31.851Z,100311.55
2022-10-03T15:50:06.607Z,100315.08
2022-10-03T15:52:40.969Z,100318.46
2022-10-03T15:55:19.269Z,100321.98
2022-10-03T15:57:50.878Z,100325.26
2022-10-03T16:00:27.650Z,100331.45
2022-10-03T16:03:08.346Z,100331.89
2022-10-03T16:05:49.270Z,100336.62
2022-10-03T16:08:22.425Z,100339.27
2022-10-03T16:11:05.608Z,100342.29
2022-10-03T16:13:38.953Z,100345.38
2022-10-03T16:16:17.231Z,100348.27
2022-10-03T16:18:57.456Z,100357.02
2022-10-03T16:21:47.652Z,100358.81
2022-10-03T16:24:43.904Z,100357.97
2022-10-03T16:27:19.186Z,100366.73
2022-10-03T16:29:57.740Z,100368.20
2022-10-03T16:32:28.056Z,100371.73
2022-10-03T16:35:01.017Z,100370.02
2022-10-03T16:37:32.860Z,100370.07
2022-10-03T16:40:05.552Z,100377.48
2022-10-03T16:42:43.193Z,100381.83
2022-10-03T16:45:25.399Z,100386.44
2022-10-03T16:48:14.854Z,100386.37
2022-10-03T16:50:49.301Z,100394.64
2022-10-03T16:53:20.958Z,100400.34
2022-10-03T16:55:57.877Z,100403.92
2022-10-03T16:58:32.837Z,100402.44
2022-10-03T17:04:00.118Z,100410.48
2022-10-03T17:06:32.733Z,100411.38
2022-10-03T17:09:07.692Z,100412.33
2022-10-03T17:11:39.941Z,100410.35
2022-10-03T17:14:10.664Z,100421.11
2022-10-03T17:16:46.843Z,100423.22
2022-10-03T17:19:33.389Z,100420.95
2022-10-03T17:22:13.159Z,100419.96
2022-10-03T17:24:48.837Z,100422.95
2022-10-03T17:27:23.906Z,100423.84
2022-10-03T17:30:02.083Z,100427.64
2022-10-03T17:32:36.143Z,100433.83
2022-10-03T17:35:12.460Z,100433.45
2022-10-03T17:38:30.822Z,100432.98
2022-10-03T17:41:14.543Z,100429.90
2022-10-03T17:43:49.114Z,100427.98
2022-10-03T17:46:25.560Z,100437.80
2022-10-03T17:49:02.144Z,100437.94
2022-10-03T17:51:38.403Z,100441.14
2022-10-03T17:54:15.063Z,100442.63
2022-10-03T17:56:51.289Z,100441.23
2022-10-03T17:59:27.572Z,100437.67
2022-10-03T18:02:04.960Z,100437.65
2022-10-03T18:04:39.513Z,100442.27
2022-10-03T18:07:12.783Z,100444.90
2022-10-03T18:09:48.285Z,100441.06
2022-10-03T18:12:29.547Z,100440.39
2022-10-03T18:15:20.765Z,100439.71
2022-10-03T18:18:04.064Z,100440.66
2022-10-03T18:20:44.749Z,100441.43
2022-10-03T18:23:53.377Z,100442.84
2022-10-03T18:26:29.423Z,100444.33
2022-10-03T18:29:15.103Z,100445.74
2022-10-03T18:31:49.059Z,100443.72
2022-10-03T18:34:20.587Z,100449.07
2022-10-03T18:36:53.449Z,100455.42
2022-10-03T18:39:27.156Z,100458.27
2022-10-03T18:41:58.646Z,100458.95
2022-10-03T18:44:30.315Z,100466.48
2022-10-03T18:47:13.710Z,100469.88
2022-10-03T18:49:52.030Z,100470.38
2022-10-03T18:52:28.417Z,100467.73
2022-10-03T18:55:01.798Z,100469.26
2022-10-03T18:57:39.511Z,100465.07
2022-10-03T19:00:17.886Z,100462.43
2022-10-03T19:02:52.229Z,100461.06
2022-10-03T19:05:24.800Z,100460.86
2022-10-03T19:08:02.551Z,100462.86
2022-10-03T19:10:42.715Z,100470.86
2022-10-03T19:13:28.425Z,100472.41
2022-10-03T19:16:21.846Z,100472.65
2022-10-03T19:19:02.202Z,100480.38
2022-10-03T19:21:37.312Z,100485.19
2022-10-03T19:24:17.814Z,100486.34
2022-10-03T19:26:55.560Z,100483.06
2022-10-03T19:29:34.886Z,100482.36
2022-10-03T19:32:18.611Z,100485.20
2022-10-03T19:34:57.222Z,100484.54
2022-10-03T19:37:44.431Z,100487.64
2022-10-03T19:40:37.049Z,100494.89
2022-10-03T19:43:29.686Z,100504.04
2022-10-03T19:46:23.738Z,100504.92
2022-10-03T19:49:16.724Z,100502.12
2022-10-03T19:51:50.168Z,100505.36
2022-10-03T19:54:43.705Z,100505.83
2022-10-03T19:57:20.482Z,100508.37
2022-10-03T19:59:56.343Z,100506.38
2022-10-03T20:02:27.642Z,100508.20
2022-10-03T20:05:00.240Z,100512.08
2022-10-03T20:07:46.437Z,100517.98
2022-10-03T20:10:42.489Z,100519.69
2022-10-03T20:13:15.072Z,100523.37
2022-10-03T20:15:49.231Z,100523.30
2022-10-03T20:18:27.632Z,100523.82
2022-10-03T20:21:04.722Z,100525.51
2022-10-03T20:23:38.176Z,100528.14
2022-10-03T20:26:24.391Z,100533.48
2022-10-03T20:29:23.025Z,100535.35
2022-10-03T20:31:58.089Z,100543.73
2022-10-03T20:34:30.866Z,100547.56
2022-10-03T20:37:36.947Z,100550.59
2022-10-03T20:40:21.385Z,100546.93
2022-10-03T20:42:53.355Z,100547.42
2022-10-03T20:45:27.530Z,100545.60
2022-10-03T20:48:03.038Z,100548.27
2022-10-03T20:50:35.370Z,100550.85
2022-10-03T20:53:11.309Z,100553.66
2022-10-03T20:55:48.032Z,100555.30
2022-10-03T20:58:24.333Z,100555.70
2022-10-03T21:00:59.843Z,100556.93
2022-10-03T21:03:35.175Z,100559.23
2022-10-03T21:06:15.074Z,100553.02
2022-10-03T21:08:44.799Z,100548.59
2022-10-03T21:11:21.556Z,100550.09
2022-10-03T21:13:56.479Z,100552.95
2022-10-03T21:16:29.641Z,100558.10
2022-10-03T21:19:01.844Z,100561.83
2022-10-03T21:21:42.213Z,100557.15
2022-10-03T21:24:18.765Z,100559.63
2022-10-03T21:26:52.842Z,100555.23
2022-10-03T21:29:30.652Z,100555.33
2022-10-03T21:32:11.812Z,100554.86
2022-10-03T21:34:47.421Z,100563.90
2022-10-03T21:37:25.257Z,100563.50
2022-10-03T21:40:06.700Z,100571.08
2022-10-03T21:42:45.549Z,100577.54
2022-10-03T21:45:27.020Z,100578.60
2022-10-03T21:48:03.410Z,100580.58
2022-10-03T21:50:42.769Z,100576.41
2022-10-03T21:53:19.372Z,100571.27
2022-10-03T21:56:11.153Z,100575.70
2022-10-03T21:59:10.423Z,100571.11
2022-10-03T22:01:51.090Z,100572.85
2022-10-03T22:04:42.754Z,100571.87
2022-10-03T22:07:28.595Z,100566.17
2022-10-03T22:09:58.711Z,100571.94
2022-10-03T22:12:40.813Z,100569.14
2022-10-03T22:15:19.044Z,100568.13
2022-10-03T22:17:54.181Z,100571.64
2022-10-03T22:20:25.093Z,100574.19
2022-10-03T22:23:06.454Z,100574.89
2022-10-03T22:26:03.647Z,100578.83
2022-10-03T22:28:48.418Z,100579.50
2022-10-03T22:31:26.944Z,100579.57
2022-10-03T22:34:06.933Z,100572.83
2022-10-03T22:36:37.630Z,100570.18
2022-10-03T22:39:10.816Z,100569.52
2022-10-03T22:41:42.175Z,100563.57
2022-10-03T22:44:14.926Z,100561.34
2022-10-03T22:46:51.083Z,100558.91
2022-10-03T22:49:23.953Z,100560.35
2022-10-03T22:51:56.608Z,100559.94
2022-10-03T22:54:33.759Z,100562.30
2022-10-03T22:57:07.460Z,100561.09
2022-10-03T22:59:42.996Z,100565.80
2022-10-03T23:02:12.686Z,100567.66
2022-10-03T23:04:47.526Z,100563.94
2022-10-03T23:07:37.574Z,100564.83
2022-10-03T23:10:20.771Z,100566.64
2022-10-03T23:12:55.874Z,100565.11
2022-10-03T23:15:26.818Z,100564.05
2022-10-03T23:18:37.470Z,100564.19
2022-10-03T23:21:08.547Z,100563.70
2022-10-03T23:24:00.143Z,100561.34
2022-10-03T23:26:44.894Z,100563.92
2022-10-03T23:29:16.300Z,100563.84
2022-10-03T23:31:54.936Z,100565.33
2022-10-03T23:34:51.683Z,100568.67
2022-10-03T23:37:37.682Z,100569.04
2022-10-03T23:40:35.164Z,100574.71
2022-10-03T23:43:22.527Z,100576.73
2022-10-03T23:45:53.537Z,100575.08
2022-10-03T23:48:39.553Z,100571.95
2022-10-03T23:51:13.455Z,100573.71
2022-10-03T23:53:46.443Z,100574.55
2022-10-03T23:56:37.099Z,100578.13
2022-10-03T23:59:21.492Z,100581.52
